Flight Track Log - Related Links

Times and Time Zones

All times are in EDT time to prevent confusion due to time zone crossing. See the CSN6964 flight status page for this flight to view local times or setup timezone preferences in your user account.

Time Position Orientation Groundspeed Altitude Reporting Facility
EDT Latitude Longitude Course Direction KTS MPH feet Rate Location/Type
Mon 05:59:00 AM 31.8067 118.7584 306° West  Level Estimated
Mon 06:00:00 AM 31.8712 118.6546 306° West  Level Estimated
Mon 06:01:00 AM 31.9357 118.5506 306° West  Level Estimated
Mon 06:02:00 AM 32.0000 118.4465 306° West  Level Estimated
Mon 06:03:00 AM 32.0643 118.3423 306° West  Level Estimated
Mon 06:04:00 AM 32.1285 118.2379 306° West  Level Estimated
Mon 06:05:00 AM 32.1926 118.1333 306° West  Level Estimated
Mon 06:06:00 AM 32.2566 118.0287 306° West  Level Estimated
Mon 06:07:00 AM 32.3206 117.9238 306° West  Level Estimated
Mon 06:08:00 AM 32.3844 117.8189 306° West  Level Estimated
Mon 06:09:00 AM 32.4482 117.7137 306° West  Level Estimated
Mon 06:10:00 AM 32.5119 117.6085 306° West  Level Estimated
Mon 06:11:00 AM 32.5755 117.5030 306° West  Level Estimated
Mon 06:12:00 AM 32.6390 117.3975 306° West  Level Estimated
Mon 06:13:00 AM 32.7024 117.2917 306° West  Level Estimated
Mon 06:14:00 AM 32.7657 117.1859 305° West  Level Estimated
Mon 06:15:00 AM 32.8290 117.0798 305° West  Level Estimated
Mon 06:16:00 AM 32.8921 116.9737 305° West  Level Estimated
Mon 06:17:00 AM 32.9552 116.8673 305° West  Level Estimated
Mon 06:18:00 AM 33.0182 116.7609 305° West  Level Estimated
Mon 06:19:00 AM 33.0810 116.6542 305° West  Level Estimated
Mon 06:20:00 AM 33.1438 116.5474 305° West  Level Estimated
Mon 06:21:00 AM 33.2065 116.4405 305° West  Level Estimated
Mon 06:22:00 AM 33.2691 116.3334 305° West  Level Estimated
Mon 06:23:00 AM 33.3316 116.2262 305° West  Level Estimated
Mon 06:24:00 AM 33.3940 116.1188 305° West  Level Estimated
Mon 06:25:00 AM 33.4564 116.0112 305° West  Level Estimated
Mon 06:26:00 AM 33.5186 115.9035 305° West  Level Estimated
Mon 06:27:00 AM 33.5807 115.7957 305° West  Level Estimated
Mon 06:28:00 AM 33.6428 115.6876 305° West  Level Estimated
Mon 06:29:00 AM 33.7047 115.5795 305° West  Level Estimated
Mon 06:30:00 AM 33.7666 115.4711 305° West  Level Estimated
Mon 06:31:00 AM 33.8284 115.3627 304° West  Level Estimated
Mon 06:32:00 AM 33.8900 115.2540 304° West  Level Estimated
Mon 06:33:00 AM 33.9516 115.1452 304° West  Level Estimated
Mon 06:34:00 AM 34.0131 115.0363 304° West  Level Estimated
Mon 06:35:00 AM 34.0745 114.9271 304° West  Level Estimated
Mon 06:36:00 AM 34.1357 114.8179 304° West  Level Estimated
Mon 06:37:00 AM 34.1969 114.7085 304° West  Level Estimated
Mon 06:38:00 AM 34.2580 114.5989 304° West  Level Estimated
Mon 06:39:00 AM 34.3190 114.4891 304° West  Level Estimated
Mon 06:40:00 AM 34.3799 114.3792 304° West  Level Estimated
Mon 06:41:00 AM 34.4407 114.2691 304° West  Level Estimated
Mon 06:42:00 AM 34.5014 114.1589 304° West  Level Estimated
Mon 06:43:00 AM 34.5620 114.0485 304° West  Level Estimated
Mon 06:44:00 AM 34.6225 113.9380 304° West  Level Estimated
Mon 06:45:00 AM 34.6829 113.8272 304° West  Level Estimated
Mon 06:46:00 AM 34.7432 113.7164 304° West  Level Estimated
Mon 06:47:00 AM 34.8034 113.6053 303° West  Level Estimated
Mon 06:48:00 AM 34.8635 113.4941 303° West  Level Estimated
Mon 06:49:00 AM 34.9235 113.3828 303° West  Level Estimated
Mon 06:50:00 AM 34.9834 113.2713 303° West  Level Estimated
Mon 06:51:00 AM 35.0432 113.1596 303° West  Level Estimated
Mon 06:52:00 AM 35.1029 113.0477 303° West  Level Estimated
Mon 06:53:00 AM 35.1625 112.9357 303° West  Level Estimated
Mon 06:54:00 AM 35.2219 112.8235 303° West  Level Estimated
Mon 06:55:00 AM 35.2813 112.7112 303° West  Level Estimated
Mon 06:56:00 AM 35.3406 112.5987 303° West  Level Estimated
Mon 06:57:00 AM 35.3998 112.4860 303° West  Level Estimated
Mon 06:58:00 AM 35.4588 112.3732 303° West  Level Estimated
Mon 06:59:00 AM 35.5178 112.2602 303° West  Level Estimated
Mon 07:00:00 AM 35.5766 112.1470 303° West  Level Estimated
Mon 07:01:00 AM 35.6354 112.0337 303° West  Level Estimated
Mon 07:02:00 AM 35.6940 111.9202 302° West  Level Estimated
Mon 07:03:00 AM 35.7526 111.8065 302° West  Level Estimated
Mon 07:04:00 AM 35.8110 111.6927 302° West  Level Estimated
Mon 07:05:00 AM 35.8693 111.5787 302° West  Level Estimated
Mon 07:06:00 AM 35.9275 111.4645 302° West  Level Estimated
Mon 07:07:00 AM 35.9856 111.3502 302° West  Level Estimated
Mon 07:08:00 AM 36.0437 111.2357 302° West  Level Estimated
Mon 07:09:00 AM 36.1015 111.1210 302° West  Level Estimated
Mon 07:10:00 AM 36.1593 111.0062 302° West  Level Estimated
Mon 07:11:00 AM 36.2170 110.8912 302° West  Level Estimated
Mon 07:12:00 AM 36.2746 110.7760 302° West  Level Estimated
Mon 07:13:00 AM 36.3320 110.6607 302° West  Level Estimated
Mon 07:14:00 AM 36.3893 110.5451 302° West  Level Estimated
Mon 07:15:00 AM 36.4466 110.4294 302° West  Level Estimated
Mon 07:16:00 AM 36.5037 110.3136 302° West  Level Estimated
Mon 07:17:00 AM 36.5607 110.1975 301° West  Level Estimated
Mon 07:18:00 AM 36.6176 110.0814 301° West  Level Estimated
Mon 07:19:00 AM 36.6743 109.9650 301° West  Level Estimated
Mon 07:20:00 AM 36.7310 109.8484 301° West  Level Estimated
Mon 07:21:00 AM 36.7876 109.7317 301° West  Level Estimated
Mon 07:22:00 AM 36.8440 109.6148 301° West  Level Estimated
Mon 07:23:00 AM 36.9003 109.4977 301° West  Level Estimated
Mon 07:24:00 AM 36.9565 109.3805 301° West  Level Estimated
Mon 07:25:00 AM 37.0126 109.2631 301° West  Level Estimated
Mon 07:26:00 AM 37.0686 109.1455 301° West  Level Estimated
Mon 07:27:00 AM 37.1244 109.0278 301° West  Level Estimated
Mon 07:28:00 AM 37.1802 108.9098 301° West  Level Estimated
Mon 07:29:00 AM 37.2358 108.7917 301° West  Level Estimated
Mon 07:30:00 AM 37.2913 108.6734 301° West  Level Estimated
Mon 07:31:00 AM 37.3467 108.5550 300° West  Level Estimated
Mon 07:32:00 AM 37.4020 108.4364 300° West  Level Estimated
Mon 07:33:00 AM 37.4571 108.3176 300° West  Level Estimated
Mon 07:34:00 AM 37.5121 108.1986 300° West  Level Estimated
Mon 07:35:00 AM 37.5670 108.0794 300° West  Level Estimated
Mon 07:36:00 AM 37.6218 107.9601 300° West  Level Estimated
Mon 07:37:00 AM 37.6765 107.8406 300° West  Level Estimated
Mon 07:38:00 AM 37.7310 107.7209 300° West  Level Estimated
Mon 07:39:00 AM 37.7855 107.6011 300° West  Level Estimated
Mon 07:40:00 AM 37.8398 107.4810 300° West  Level Estimated
Mon 07:41:00 AM 37.8940 107.3608 300° West  Level Estimated
Mon 07:42:00 AM 37.9480 107.2404 300° West  Level Estimated
Mon 07:43:00 AM 38.0020 107.1199 300° West  Level Estimated
Mon 07:44:00 AM 38.0558 106.9991 300° West  Level Estimated
Mon 07:45:00 AM 38.1095 106.8782 299° West  Level Estimated
Mon 07:46:00 AM 38.1631 106.7571 299° West  Level Estimated
Mon 07:47:00 AM 38.2165 106.6358 299° West  Level Estimated
Mon 07:48:00 AM 38.2698 106.5144 299° West  Level Estimated
Mon 07:49:00 AM 38.3228 106.3933 299° West  Level Estimated
Mon 07:50:00 AM 38.3228 106.3933 130° Southeast  Level Estimated
Mon 07:51:00 AM 38.3228 106.3933 130° Southeast  Level Estimated
Mon 07:52:00 AM 38.3228 106.3933 130° Southeast  Level Estimated
Mon 07:53:00 AM 38.3228 106.3933 130° Southeast  Level Estimated
Mon 07:54:00 AM 38.3228 106.3933 130° Southeast  Level Estimated
Mon 07:55:00 AM 38.3228 106.3933 130° Southeast  Level Estimated
Mon 07:56:00 AM 38.3228 106.3933 130° Southeast  Level Estimated
Mon 07:57:00 AM 38.3228 106.3933 130° Southeast  Level Estimated

Login

Don't have an account? Register now (free) for customized features, flight alerts, and more!